Time;durP1;ratioP1;P1;durP2;ratioP2;P2;SDS_P1;SDS_P2;PMS_P1;PMS_P2;Temp;Humidity;BMP_temperature;BMP_pressure;BME280_temperature;BME280_humidity;BME280_pressure;Samples;Min_cycle;Max_cycle;Signal;HPM_P1;HPM_P2
2021/06/12 00:00:05;;;;;;;7.85;6.45;;;;;;;20.50;61.96;100538.50;5015645;28;20057;-65
2021/06/12 00:02:31;;;;;;;8.33;6.70;;;;;;;20.45;62.07;100542.44;5016052;28;20045;-66
2021/06/12 00:04:59;;;;;;;9.70;6.10;;;;;;;20.43;62.25;100542.84;5015588;28;20061;-65
2021/06/12 00:07:29;;;;;;;8.38;6.00;;;;;;;20.43;62.22;100542.00;5015576;28;20065;-65
2021/06/12 00:09:58;;;;;;;8.38;6.18;;;;;;;20.41;62.21;100539.56;5015194;28;20064;-65
2021/06/12 00:12:25;;;;;;;10.07;5.72;;;;;;;20.42;62.28;100540.38;5014280;28;20065;-65
2021/06/12 00:14:52;;;;;;;8.55;6.78;;;;;;;20.42;62.18;100541.19;5016787;28;20414;-65
2021/06/12 00:17:19;;;;;;;11.10;6.53;;;;;;;20.42;62.27;100541.19;5026077;28;20060;-65
2021/06/12 00:19:46;;;;;;;7.53;6.30;;;;;;;20.45;62.25;100531.97;5035238;28;20402;-65
2021/06/12 00:22:13;;;;;;;7.70;5.90;;;;;;;20.47;62.06;100543.72;5035273;28;20060;-65
2021/06/12 00:24:41;;;;;;;8.27;5.82;;;;;;;20.53;61.95;100534.88;5023626;28;20085;-65
2021/06/12 00:27:10;;;;;;;7.82;5.28;;;;;;;20.55;61.87;100527.63;5015298;28;20054;-65
2021/06/12 00:29:37;;;;;;;8.73;5.78;;;;;;;20.58;61.90;100524.09;5014839;28;20054;-65
2021/06/12 00:32:05;;;;;;;6.35;5.13;;;;;;;20.58;62.11;100520.44;5015216;28;20068;-65
2021/06/12 00:34:34;;;;;;;8.30;5.88;;;;;;;20.59;61.82;100524.91;5030213;28;20057;-65
2021/06/12 00:37:01;;;;;;;7.15;5.57;;;;;;;20.60;61.90;100523.69;5034983;28;20053;-65
2021/06/12 00:39:28;;;;;;;10.05;5.45;;;;;;;20.58;62.20;100517.59;5023842;28;20061;-65
2021/06/12 00:41:56;;;;;;;7.35;5.65;;;;;;;20.54;62.42;100511.88;5015160;28;20045;-65
2021/06/12 00:44:23;;;;;;;6.75;5.47;;;;;;;20.52;62.42;100510.63;5014955;28;20494;-65
2021/06/12 00:46:50;;;;;;;7.50;5.45;;;;;;;20.49;62.39;100506.53;5014730;28;20058;-65
2021/06/12 00:49:19;;;;;;;7.05;5.60;;;;;;;20.46;62.52;100501.66;5014901;28;20053;-65
2021/06/12 00:51:46;;;;;;;7.95;6.05;;;;;;;20.40;62.43;100501.16;5027812;28;20049;-65
2021/06/12 00:54:13;;;;;;;7.38;5.20;;;;;;;20.36;62.72;100502.28;5021981;28;20053;-65
2021/06/12 00:56:40;;;;;;;8.18;5.50;;;;;;;20.31;62.85;100494.16;5014801;28;20478;-65
2021/06/12 00:59:08;;;;;;;7.50;5.43;;;;;;;20.27;62.75;100494.88;5014700;28;20068;-65
2021/06/12 01:01:35;;;;;;;8.82;5.80;;;;;;;20.21;62.96;100490.75;5015069;28;20061;-65
2021/06/12 01:04:01;;;;;;;7.70;5.70;;;;;;;20.17;63.18;100494.72;5014339;28;20057;-65
2021/06/12 01:06:28;;;;;;;8.77;5.38;;;;;;;20.12;63.25;100504.34;5014744;28;20394;-65
2021/06/12 01:08:55;;;;;;;6.30;5.40;;;;;;;20.06;63.50;100497.38;5013871;28;20057;-65
2021/06/12 01:11:22;;;;;;;8.35;5.90;;;;;;;20.05;63.69;100487.25;5014260;28;20394;-65
2021/06/12 01:13:57;;;;;;;7.80;6.07;;;;;;;20.05;63.45;100492.91;5014333;28;20380;-65
2021/06/12 01:16:33;;;;;;;7.32;5.80;;;;;;;19.97;63.73;100499.63;5014068;28;20053;-65
2021/06/12 01:19:09;;;;;;;9.38;5.82;;;;;;;19.85;64.20;100487.34;5014277;28;20706;-65
2021/06/12 01:21:40;;;;;;;6.70;5.65;;;;;;;19.87;63.87;100492.63;5015426;28;20049;-65
2021/06/12 01:24:24;;;;;;;8.13;5.60;;;;;;;19.83;64.23;100492.56;5014010;28;20472;-65
2021/06/12 01:27:34;;;;;;;8.02;6.43;;;;;;;19.82;64.09;100488.09;5025880;28;20486;-65
2021/06/12 01:30:12;;;;;;;9.63;6.15;;;;;;;19.79;64.12;100486.00;5033952;28;20064;-65
2021/06/12 01:32:41;;;;;;;7.07;5.70;;;;;;;19.72;64.49;100482.25;5033803;28;20049;-65
2021/06/12 01:35:14;;;;;;;6.13;4.93;;;;;;;19.68;64.76;100485.00;5033800;28;20076;-65
2021/06/12 01:37:48;;;;;;;6.75;5.35;;;;;;;19.69;64.62;100486.59;5033985;28;20076;-65
2021/06/12 01:40:17;;;;;;;6.88;5.15;;;;;;;19.73;64.80;100492.38;5016084;28;20509;-65
2021/06/12 01:42:50;;;;;;;8.13;5.72;;;;;;;19.77;64.67;100494.06;5014148;28;20050;-65
2021/06/12 01:45:20;;;;;;;5.97;5.20;;;;;;;19.85;64.29;100493.00;5013900;28;20478;-65
2021/06/12 01:47:52;;;;;;;6.50;5.45;;;;;;;19.93;64.31;100493.09;5013686;28;20061;-65
2021/06/12 01:50:21;;;;;;;6.82;4.93;;;;;;;20.00;64.27;100499.69;5014631;28;20061;-65
2021/06/12 01:52:50;;;;;;;7.18;5.30;;;;;;;20.07;63.89;100499.84;5032467;28;20053;-65
2021/06/12 01:55:20;;;;;;;8.77;5.50;;;;;;;20.15;63.74;100509.22;5013546;28;20054;-65
2021/06/12 01:57:48;;;;;;;6.75;5.18;;;;;;;20.21;63.26;100507.72;5013722;28;20053;-65
2021/06/12 02:00:16;;;;;;;8.65;5.43;;;;;;;20.26;63.20;100496.09;5013675;28;20413;-65
2021/06/12 02:02:46;;;;;;;6.18;4.68;;;;;;;20.33;63.17;100503.88;5013332;28;20384;-65
2021/06/12 02:05:16;;;;;;;6.50;5.18;;;;;;;20.41;63.32;100516.09;5013666;28;20514;-65
2021/06/12 02:07:47;;;;;;;6.90;4.95;;;;;;;20.46;62.91;100510.13;5013710;28;20080;-65
2021/06/12 02:10:18;;;;;;;7.07;5.22;;;;;;;20.56;62.76;100512.31;5032973;28;20517;-65
2021/06/12 02:12:45;;;;;;;7.88;4.82;;;;;;;20.62;62.71;100516.47;5033291;28;20049;-65
2021/06/12 02:15:13;;;;;;;8.82;5.80;;;;;;;20.65;62.53;100515.69;5032663;28;20049;-65
2021/06/12 02:17:40;;;;;;;8.18;6.00;;;;;;;20.60;62.73;100521.69;5033001;28;20053;-65
2021/06/12 02:20:11;;;;;;;5.97;5.25;;;;;;;20.67;62.71;100524.63;5032884;28;20049;-65
2021/06/12 02:22:41;;;;;;;6.45;5.60;;;;;;;20.74;62.50;100523.91;5030695;28;20042;-65
2021/06/12 02:25:10;;;;;;;7.07;5.35;;;;;;;20.82;62.58;100530.50;5013227;28;20064;-65
2021/06/12 02:27:39;;;;;;;8.38;5.90;;;;;;;20.81;62.30;100538.19;5030998;28;20064;-65
2021/06/12 02:30:08;;;;;;;7.32;5.45;;;;;;;20.90;62.20;100537.09;5033063;28;20402;-65
2021/06/12 02:32:40;;;;;;;8.68;5.80;;;;;;;20.91;62.42;100539.50;5032197;28;20402;-65
2021/06/12 02:35:09;;;;;;;9.05;5.82;;;;;;;20.90;62.53;100535.06;5032817;28;20399;-65
2021/06/12 02:37:40;;;;;;;8.52;6.65;;;;;;;20.90;62.65;100531.41;5032454;28;20072;-65
2021/06/12 02:40:08;;;;;;;7.97;5.97;;;;;;;20.90;62.56;100528.59;5015962;28;20486;-65
2021/06/12 02:42:41;;;;;;;9.40;6.45;;;;;;;20.93;62.33;100517.28;5012904;28;20054;-65
2021/06/12 02:45:10;;;;;;;7.45;6.05;;;;;;;20.92;62.53;100526.19;5012704;28;20482;-65
2021/06/12 02:47:43;;;;;;;10.85;7.07;;;;;;;20.97;62.40;100518.16;5013234;28;20414;-65
2021/06/12 02:50:13;;;;;;;9.55;6.50;;;;;;;20.90;62.69;100515.25;5013094;28;20054;-64
2021/06/12 02:52:44;;;;;;;10.38;6.75;;;;;;;20.88;62.84;100517.63;5013422;28;20053;-65
2021/06/12 02:55:12;;;;;;;8.10;6.55;;;;;;;20.93;62.75;100510.81;5012996;28;20053;-65
2021/06/12 02:57:42;;;;;;;8.95;7.13;;;;;;;20.93;62.51;100500.28;5013771;28;20058;-65
2021/06/12 03:00:10;;;;;;;9.95;6.97;;;;;;;20.81;62.99;100506.19;5013636;28;20133;-65
2021/06/12 03:02:40;;;;;;;9.05;7.15;;;;;;;20.80;62.96;100508.22;5013325;28;20042;-65
2021/06/12 03:05:11;;;;;;;8.00;6.18;;;;;;;20.70;63.40;100510.91;5013233;28;20080;-65
2021/06/12 03:07:39;;;;;;;10.18;7.63;;;;;;;20.67;63.17;100516.13;5012930;28;20117;-65
2021/06/12 03:10:09;;;;;;;11.80;7.40;;;;;;;20.62;63.42;100516.47;5012547;28;20053;-65
2021/06/12 03:12:38;;;;;;;11.20;7.25;;;;;;;20.58;63.80;100515.59;5012816;28;20054;-65
2021/06/12 03:15:06;;;;;;;8.98;6.78;;;;;;;20.60;63.71;100513.22;5013327;28;20061;-65
2021/06/12 03:17:34;;;;;;;9.05;6.65;;;;;;;20.60;63.58;100516.03;5012730;28;20073;-65
2021/06/12 03:20:03;;;;;;;11.52;6.45;;;;;;;20.59;63.66;100511.56;5012889;28;20061;-65
2021/06/12 03:22:30;;;;;;;9.77;6.50;;;;;;;20.59;63.76;100511.56;5013561;28;20049;-65
2021/06/12 03:24:59;;;;;;;10.35;7.03;;;;;;;20.59;63.79;100511.56;5017747;28;20054;-65
2021/06/12 03:27:27;;;;;;;10.20;7.05;;;;;;;20.53;63.95;100512.25;5029087;28;20065;-65
2021/06/12 03:29:55;;;;;;;11.05;6.75;;;;;;;20.51;63.88;100509.78;5032243;28;20061;-65
2021/06/12 03:32:22;;;;;;;9.85;7.05;;;;;;;20.52;64.06;100521.94;5032024;28;20475;-65
2021/06/12 03:34:50;;;;;;;8.13;6.53;;;;;;;20.53;64.26;100523.56;5032419;28;20053;-65
2021/06/12 03:37:18;;;;;;;11.13;7.32;;;;;;;20.52;63.97;100517.09;5032087;28;20057;-66
2021/06/12 03:39:45;;;;;;;8.13;6.25;;;;;;;20.41;64.51;100510.44;5017445;28;20053;-66
2021/06/12 03:42:14;;;;;;;10.70;6.28;;;;;;;20.43;64.22;100508.88;5012375;28;20502;-66
2021/06/12 03:44:45;;;;;;;9.63;6.07;;;;;;;20.34;64.39;100501.84;5012568;28;20061;-66
2021/06/12 03:47:13;;;;;;;10.02;5.88;;;;;;;20.30;64.53;100501.78;5017367;28;20045;-66
2021/06/12 03:49:40;;;;;;;7.38;5.43;;;;;;;20.33;64.35;100503.06;5035120;28;20053;-66
2021/06/12 03:52:08;;;;;;;7.40;5.53;;;;;;;20.20;64.96;100511.75;5035826;28;20501;-66
2021/06/12 03:54:36;;;;;;;8.93;5.47;;;;;;;20.20;64.89;100513.75;5035395;28;20387;-66
2021/06/12 03:57:05;;;;;;;7.13;5.23;;;;;;;20.24;64.58;100512.63;5028022;28;20418;-66
2021/06/12 03:59:33;;;;;;;7.28;5.65;;;;;;;20.23;64.67;100505.31;5015999;28;20068;-66
2021/06/12 04:02:01;;;;;;;10.15;6.22;;;;;;;20.24;64.62;100509.81;5015649;28;20061;-66
2021/06/12 04:04:28;;;;;;;8.32;5.30;;;;;;;20.31;64.48;100511.94;5015197;28;20435;-66
2021/06/12 04:06:54;;;;;;;7.68;5.22;;;;;;;20.36;64.45;100510.78;5015757;28;20061;-66
2021/06/12 04:09:21;;;;;;;7.03;5.10;;;;;;;20.41;64.20;100516.94;5015447;28;20054;-66
2021/06/12 04:11:48;;;;;;;8.00;5.30;;;;;;;20.48;64.13;100522.69;5015520;28;20060;-66
2021/06/12 04:14:15;;;;;;;6.95;4.80;;;;;;;20.52;63.88;100527.63;5015539;28;20057;-66
2021/06/12 04:16:43;;;;;;;7.65;4.95;;;;;;;20.63;63.70;100531.44;5015308;28;20060;-66
2021/06/12 04:19:10;;;;;;;7.80;4.88;;;;;;;20.68;63.35;100529.09;5015394;28;20057;-66
2021/06/12 04:21:37;;;;;;;6.90;4.57;;;;;;;20.74;63.28;100520.25;5015419;28;20057;-66
2021/06/12 04:24:05;;;;;;;7.93;4.93;;;;;;;20.81;63.06;100526.84;5015265;28;20053;-66
2021/06/12 04:26:32;;;;;;;8.13;4.80;;;;;;;20.89;62.78;100524.91;5024718;28;20060;-66
2021/06/12 04:28:59;;;;;;;6.68;4.70;;;;;;;20.91;62.45;100533.84;5034775;28;20406;-66
2021/06/12 04:31:25;;;;;;;6.22;4.70;;;;;;;20.92;62.71;100529.03;5034882;28;20394;-66
2021/06/12 04:33:54;;;;;;;5.97;4.72;;;;;;;20.95;62.48;100534.72;5034939;28;20060;-66
2021/06/12 04:36:21;;;;;;;6.45;5.15;;;;;;;20.97;62.53;100532.31;5035176;28;20057;-66
2021/06/12 04:38:48;;;;;;;7.82;5.15;;;;;;;20.97;62.28;100528.66;5026948;28;20391;-66
2021/06/12 04:41:15;;;;;;;8.45;5.35;;;;;;;21.02;62.06;100526.31;5014906;28;20050;-66
2021/06/12 04:43:41;;;;;;;9.02;5.78;;;;;;;21.06;62.12;100523.53;5014621;28;20065;-66
2021/06/12 04:46:08;;;;;;;6.60;5.50;;;;;;;21.17;61.74;100518.00;5014415;28;20483;-66
2021/06/12 04:48:35;;;;;;;7.70;5.00;;;;;;;21.20;61.79;100514.41;5014852;28;20050;-66
2021/06/12 04:51:04;;;;;;;7.13;5.05;;;;;;;21.21;61.50;100525.34;5031367;28;20056;-66
2021/06/12 04:53:30;;;;;;;6.20;4.80;;;;;;;21.22;61.27;100520.50;5027369;28;20052;-66
2021/06/12 04:55:57;;;;;;;7.70;5.13;;;;;;;21.23;61.27;100510.78;5014607;28;20061;-66
2021/06/12 04:58:24;;;;;;;8.68;4.85;;;;;;;21.30;61.04;100508.03;5014390;28;20050;-66
2021/06/12 05:00:53;;;;;;;9.05;5.38;;;;;;;21.38;60.57;100501.25;5014563;28;20057;-66
2021/06/12 05:03:20;;;;;;;7.30;4.70;;;;;;;21.36;60.77;100491.53;5014691;28;20117;-66
2021/06/12 05:05:47;;;;;;;8.68;5.20;;;;;;;21.44;60.64;100494.06;5014628;28;20061;-66
2021/06/12 05:08:16;;;;;;;7.47;4.75;;;;;;;21.51;60.26;100493.34;5014147;28;20057;-66
2021/06/12 05:10:43;;;;;;;7.93;5.20;;;;;;;21.48;60.16;100486.44;5014366;28;20129;-66
2021/06/12 05:13:10;;;;;;;8.93;5.10;;;;;;;21.58;60.07;100486.91;5014180;28;20050;-66
2021/06/12 05:15:37;;;;;;;7.82;5.07;;;;;;;21.68;59.67;100487.03;5033613;28;20057;-66
2021/06/12 05:18:06;;;;;;;8.75;5.50;;;;;;;21.78;59.32;100490.38;5033711;28;20060;-66
2021/06/12 05:20:35;;;;;;;9.43;5.55;;;;;;;21.96;58.66;100502.66;5034158;28;20065;-66
2021/06/12 05:23:02;;;;;;;12.32;6.38;;;;;;;21.99;58.82;100507.56;5033944;28;20058;-66
2021/06/12 05:25:31;;;;;;;8.63;6.05;;;;;;;22.04;58.41;100514.88;5016112;28;20046;-66
2021/06/12 05:27:58;;;;;;;7.63;5.50;;;;;;;22.09;58.13;100489.81;5033405;28;20050;-66
2021/06/12 05:30:25;;;;;;;8.63;6.10;;;;;;;22.04;58.24;100497.88;5033951;28;20057;-66
2021/06/12 05:32:52;;;;;;;9.23;6.25;;;;;;;21.88;58.88;100501.81;5033825;28;20053;-66
2021/06/12 05:35:20;;;;;;;11.00;5.45;;;;;;;21.90;58.93;100501.38;5033645;28;20064;-66
2021/06/12 05:37:47;;;;;;;8.00;5.65;;;;;;;22.10;58.40;100497.13;5033512;28;20163;-66
2021/06/12 05:40:19;;;;;;;7.63;5.43;;;;;;;22.25;58.18;100502.94;5015364;28;20061;-66
2021/06/12 05:42:47;;;;;;;7.95;5.00;;;;;;;22.18;58.10;100503.66;5014143;28;20069;-66
2021/06/12 05:45:14;;;;;;;7.97;5.53;;;;;;;22.31;57.72;100509.06;5013679;28;20061;-66
2021/06/12 05:47:41;;;;;;;8.40;4.53;;;;;;;22.43;57.66;100506.72;5013930;28;20411;-67
2021/06/12 05:50:09;;;;;;;6.25;4.70;;;;;;;22.43;57.44;100497.41;5013737;28;20058;-66
2021/06/12 05:52:36;;;;;;;6.22;4.35;;;;;;;22.57;56.54;100493.81;5033204;28;20053;-66
2021/06/12 05:55:03;;;;;;;7.43;4.45;;;;;;;22.63;56.34;100498.72;5014757;28;20058;-67
2021/06/12 05:57:30;;;;;;;7.47;4.25;;;;;;;22.65;56.63;100495.50;5013345;28;20506;-66
2021/06/12 05:59:58;;;;;;;6.30;4.68;;;;;;;22.81;56.24;100492.34;5014019;28;20049;-66
2021/06/12 06:02:25;;;;;;;7.00;4.28;;;;;;;22.84;55.87;100500.06;5013175;28;20167;-66
2021/06/12 06:04:52;;;;;;;8.20;4.93;;;;;;;22.85;55.41;100502.50;5013985;28;20406;-66
2021/06/12 06:07:18;;;;;;;6.43;4.80;;;;;;;22.91;56.04;100502.97;5013799;28;20054;-66
2021/06/12 06:09:45;;;;;;;5.30;4.50;;;;;;;23.07;55.31;100503.44;5013323;28;20057;-66
2021/06/12 06:12:12;;;;;;;5.95;4.00;;;;;;;23.18;54.92;100505.53;5012244;28;20406;-66
2021/06/12 06:14:40;;;;;;;5.90;4.35;;;;;;;23.26;54.41;100507.19;5013722;28;20046;-66
2021/06/12 06:17:08;;;;;;;6.80;5.20;;;;;;;23.41;53.98;100514.53;5013579;28;20053;-66
2021/06/12 06:19:35;;;;;;;6.53;4.50;;;;;;;23.50;53.98;100511.31;5012717;28;20415;-66
2021/06/12 06:22:01;;;;;;;7.97;4.90;;;;;;;23.54;53.87;100509.31;5021287;28;20068;-66
2021/06/12 06:24:28;;;;;;;7.68;5.05;;;;;;;23.51;53.53;100510.91;5022210;28;20073;-67
2021/06/12 06:26:55;;;;;;;7.35;5.00;;;;;;;23.60;53.31;100519.06;5025320;28;20053;-66
2021/06/12 06:29:22;;;;;;;7.47;4.80;;;;;;;23.78;53.68;100521.97;5016670;28;20073;-66
2021/06/12 06:31:49;;;;;;;5.72;4.70;;;;;;;23.94;52.80;100524.44;5013000;28;20065;-67
2021/06/12 06:34:17;;;;;;;6.82;5.38;;;;;;;24.05;53.06;100518.75;5013603;28;20410;-67
2021/06/12 06:36:45;;;;;;;7.15;5.60;;;;;;;24.11;52.58;100522.81;5012700;28;20053;-66
2021/06/12 06:39:12;;;;;;;7.95;5.80;;;;;;;24.15;51.78;100517.09;5013076;28;20073;-67
2021/06/12 06:41:39;;;;;;;6.93;5.85;;;;;;;24.15;51.91;100535.03;5012241;28;20060;-66
2021/06/12 06:44:06;;;;;;;6.38;5.25;;;;;;;24.14;52.30;100530.53;5013026;28;20057;-66
2021/06/12 06:46:33;;;;;;;8.80;6.97;;;;;;;24.23;51.58;100530.13;5013086;28;20053;-67
2021/06/12 06:49:00;;;;;;;8.48;6.82;;;;;;;24.27;51.75;100537.47;5014627;28;20518;-66
2021/06/12 06:51:28;;;;;;;7.85;6.68;;;;;;;24.37;51.89;100538.66;5022643;28;20053;-67
2021/06/12 06:53:58;;;;;;;8.60;7.63;;;;;;;24.38;52.11;100543.16;5012855;28;20383;-67
2021/06/12 06:56:28;;;;;;;10.30;9.00;;;;;;;24.43;51.40;100530.53;5012995;28;20050;-67
2021/06/12 06:58:55;;;;;;;10.52;9.43;;;;;;;24.39;51.32;100536.22;5019414;28;20057;-67
2021/06/12 07:01:22;;;;;;;10.63;9.63;;;;;;;24.40;51.70;100537.03;5031919;28;20054;-67
2021/06/12 07:03:49;;;;;;;10.77;9.63;;;;;;;24.47;51.47;100539.88;5032793;28;20435;-65
2021/06/12 07:06:16;;;;;;;10.95;9.90;;;;;;;24.46;50.91;100547.63;5031420;28;20398;-66
2021/06/12 07:08:44;;;;;;;11.20;10.02;;;;;;;24.60;50.38;100538.25;5013448;28;20058;-67
2021/06/12 07:11:11;;;;;;;8.60;7.45;;;;;;;24.68;49.99;100536.22;5012675;28;20475;-67
2021/06/12 07:13:38;;;;;;;8.98;8.18;;;;;;;24.65;49.52;100532.16;5030434;28;20065;-67
2021/06/12 07:16:06;;;;;;;9.50;8.50;;;;;;;24.75;48.87;100536.19;5031153;28;20061;-67
2021/06/12 07:18:33;;;;;;;10.10;9.10;;;;;;;24.66;48.89;100532.97;5031911;28;20049;-67
2021/06/12 07:21:00;;;;;;;10.40;8.90;;;;;;;24.64;48.83;100536.22;5032480;28;20406;-67
2021/06/12 07:23:27;;;;;;;9.38;8.48;;;;;;;24.82;48.77;100533.34;5032864;28;20049;-67
2021/06/12 07:25:55;;;;;;;10.80;9.02;;;;;;;24.93;48.99;100530.47;5020432;28;21595;-66
2021/06/12 07:28:23;;;;;;;9.77;8.77;;;;;;;24.86;49.48;100525.59;5026414;28;20045;-67
2021/06/12 07:30:49;;;;;;;8.45;7.13;;;;;;;24.90;48.83;100522.72;5029702;28;20072;-67
2021/06/12 07:33:18;;;;;;;9.68;7.80;;;;;;;25.22;48.90;100524.66;5021295;28;20056;-67
2021/06/12 07:35:46;;;;;;;9.77;7.60;;;;;;;25.50;47.66;100526.56;4996244;28;20503;-67
2021/06/12 07:38:16;;;;;;;9.00;7.65;;;;;;;25.59;47.48;100520.41;5030878;28;20493;-66
2021/06/12 07:40:43;;;;;;;10.20;8.18;;;;;;;25.66;46.91;100537.47;5018307;28;20053;-67
2021/06/12 07:43:14;;;;;;;8.65;7.07;;;;;;;25.42;47.84;100519.28;5026013;28;20053;-64
2021/06/12 07:45:41;;;;;;;9.18;7.30;;;;;;;25.08;48.34;100531.22;5030925;28;20053;-63
2021/06/12 07:48:08;;;;;;;9.10;8.20;;;;;;;24.58;50.23;100528.50;5035455;28;20472;-61
2021/06/12 07:50:37;;;;;;;9.15;8.27;;;;;;;24.46;50.42;100529.69;5033990;28;20064;-61
2021/06/12 07:53:04;;;;;;;;;;;;;;;24.25;50.62;100525.66;5033776;28;20049;-61
2021/06/12 07:55:33;;;;;;;10.68;9.57;;;;;;;23.97;51.33;100519.97;5022928;28;19929;-62
2021/06/12 07:58:00;;;;;;;10.77;9.13;;;;;;;23.75;52.37;100524.75;5023736;28;20068;-60
2021/06/12 08:00:28;;;;;;;11.20;10.10;;;;;;;23.75;52.92;100533.28;5035183;28;20072;-61
2021/06/12 08:02:55;;;;;;;12.52;10.60;;;;;;;23.58;54.12;100527.19;5034781;28;20042;-61
2021/06/12 08:05:23;;;;;;;12.48;11.15;;;;;;;23.45;55.77;100528.75;5032733;28;20054;-61
2021/06/12 08:07:50;;;;;;;15.88;13.07;;;;;;;23.40;57.14;100532.81;5015761;28;20054;-60
2021/06/12 08:10:20;;;;;;;15.98;14.23;;;;;;;23.40;56.64;100538.50;5033822;28;20053;-61
2021/06/12 08:12:47;;;;;;;14.93;13.63;;;;;;;23.42;57.16;100540.94;5024848;28;20057;-61
2021/06/12 08:15:15;;;;;;;17.13;15.25;;;;;;;23.42;56.94;100538.91;5017480;28;20391;-65
2021/06/12 08:17:43;;;;;;;19.73;18.02;;;;;;;23.64;55.42;100545.47;5016116;28;20049;-65
2021/06/12 08:20:11;;;;;;;20.02;18.23;;;;;;;23.83;55.63;100544.34;5016189;28;20057;-65
2021/06/12 08:22:38;;;;;;;19.48;17.42;;;;;;;23.87;55.22;100547.97;5019808;28;20053;-65
2021/06/12 08:25:06;;;;;;;20.35;18.40;;;;;;;23.96;54.15;100553.28;5019452;28;20054;-65
2021/06/12 08:27:33;;;;;;;21.00;19.08;;;;;;;23.88;54.26;100551.66;5017149;28;20065;-65
2021/06/12 08:30:00;;;;;;;20.58;18.58;;;;;;;23.75;54.59;100551.19;5027971;28;20061;-65
2021/06/12 08:32:27;;;;;;;20.33;18.30;;;;;;;23.60;54.57;100560.88;5016536;28;20483;-65
2021/06/12 08:34:56;;;;;;;21.40;19.20;;;;;;;23.54;54.61;100559.66;5034672;28;20068;-65
2021/06/12 08:37:23;;;;;;;24.33;21.83;;;;;;;23.47;54.44;100555.56;5024025;28;20053;-65
2021/06/12 08:39:52;;;;;;;23.52;20.55;;;;;;;23.34;54.80;100562.84;5030597;28;20482;-65
2021/06/12 08:42:19;;;;;;;25.13;22.55;;;;;;;23.15;56.22;100577.38;5033255;28;20402;-65
2021/06/12 08:44:47;;;;;;;25.30;22.88;;;;;;;22.86;57.82;100577.16;5034492;28;20159;-65
2021/06/12 08:47:14;;;;;;;26.15;23.52;;;;;;;22.79;58.60;100579.97;5018160;28;20065;-65
2021/06/12 08:49:42;;;;;;;26.40;23.80;;;;;;;22.75;58.89;100568.59;5015971;28;20053;-65
2021/06/12 08:52:10;;;;;;;25.50;23.00;;;;;;;22.77;58.51;100579.56;5030104;28;20056;-65
2021/06/12 08:54:41;;;;;;;25.90;23.23;;;;;;;22.80;58.50;100578.75;5031878;28;20495;-66
2021/06/12 08:57:09;;;;;;;25.05;22.65;;;;;;;22.78;58.41;100581.16;5021654;28;20046;-65
2021/06/12 08:59:37;;;;;;;26.52;23.83;;;;;;;22.77;59.04;100591.72;5027170;28;20053;-65
2021/06/12 09:02:05;;;;;;;25.08;22.58;;;;;;;22.79;59.19;100594.97;5035091;28;20398;-65
2021/06/12 09:04:34;;;;;;;24.80;22.30;;;;;;;22.74;58.79;100583.16;5028529;28;20056;-65
2021/06/12 09:07:24;;;;;;;26.20;23.70;;;;;;;22.73;58.81;100590.06;5030023;28;20049;-65
2021/06/12 09:09:52;;;;;;;25.42;22.98;;;;;;;22.84;58.99;100593.78;5033711;28;20057;-65
2021/06/12 09:12:19;;;;;;;26.30;23.50;;;;;;;22.88;58.60;100592.59;5019883;28;20398;-66
2021/06/12 09:15:07;;;;;;;26.02;23.52;;;;;;;22.94;58.10;100584.53;5019232;28;20045;-66
2021/06/12 09:17:39;;;;;;;25.33;22.92;;;;;;;23.05;58.12;100579.75;5049692;28;20053;-65
2021/06/12 09:20:08;;;;;;;24.75;22.40;;;;;;;23.15;56.95;100588.75;5027563;28;20061;-66
2021/06/12 09:22:40;;;;;;;24.83;22.48;;;;;;;23.41;56.35;100594.13;5014697;28;20061;-65
2021/06/12 09:25:08;;;;;;;23.42;21.13;;;;;;;23.65;55.76;100581.22;5015661;28;20064;-65
2021/06/12 09:27:35;;;;;;;24.90;22.55;;;;;;;23.90;54.65;100591.91;5015206;28;20053;-65
2021/06/12 09:30:05;;;;;;;23.88;21.67;;;;;;;24.12;54.21;100589.88;5014198;28;20054;-66
2021/06/12 09:32:43;;;;;;;22.50;20.20;;;;;;;24.17;53.44;100598.03;5014550;28;20402;-66
2021/06/12 09:35:10;;;;;;;21.45;19.52;;;;;;;24.16;53.32;100599.25;5014387;28;20057;-65
2021/06/12 09:37:40;;;;;;;18.75;16.98;;;;;;;24.42;52.03;100608.59;5014559;28;20080;-67
2021/06/12 09:40:10;;;;;;;16.50;14.90;;;;;;;24.88;50.37;100605.78;5014660;28;20065;-67
2021/06/12 09:42:41;;;;;;;17.23;15.70;;;;;;;25.54;49.65;100603.59;5018914;28;20060;-66
2021/06/12 09:45:11;;;;;;;18.42;16.65;;;;;;;26.52;47.15;100600.53;5032458;28;20064;-66
2021/06/12 09:47:38;;;;;;;15.63;14.23;;;;;;;26.78;46.26;100611.75;5031912;28;20506;-66
2021/06/12 09:50:07;;;;;;;17.33;15.57;;;;;;;26.57;46.18;100607.84;5033783;28;20050;-66
2021/06/12 09:52:44;;;;;;;17.45;15.70;;;;;;;26.26;45.82;100604.78;5021579;28;20053;-65
2021/06/12 09:55:25;;;;;;;17.35;15.65;;;;;;;26.13;46.15;100610.19;5032895;28;20064;-66
2021/06/12 09:57:53;;;;;;;16.95;15.25;;;;;;;25.83;46.07;100613.63;5014140;28;20057;-66
2021/06/12 10:00:29;;;;;;;16.95;15.40;;;;;;;25.68;47.46;100609.19;5031636;28;20053;-65
2021/06/12 10:02:58;;;;;;;17.52;15.80;;;;;;;25.32;47.55;100606.50;5032800;28;20065;-66
2021/06/12 10:05:26;;;;;;;17.50;16.10;;;;;;;25.18;48.42;100604.50;5033264;28;20054;-66
2021/06/12 10:07:55;;;;;;;17.40;15.85;;;;;;;25.15;48.55;100611.00;5034048;28;20061;-66
2021/06/12 10:10:22;;;;;;;;;;;;;;;25.72;47.07;100604.28;5022765;28;20056;-65
2021/06/12 10:12:50;;;;;;;16.35;14.95;;;;;;;26.70;45.83;100603.22;5013696;28;19928;-66
2021/06/12 10:15:18;;;;;;;16.77;15.25;;;;;;;26.59;45.29;100611.09;5020323;28;20053;-66
2021/06/12 10:17:48;;;;;;;17.35;15.85;;;;;;;26.26;45.33;100621.94;5032280;28;20046;-66
2021/06/12 10:20:17;;;;;;;17.85;16.23;;;;;;;26.07;45.64;100611.06;5021404;28;20501;-66
2021/06/12 10:22:46;;;;;;;17.83;16.30;;;;;;;26.02;45.85;100623.72;5029378;28;20045;-65
2021/06/12 10:25:16;;;;;;;16.67;15.20;;;;;;;26.21;44.76;100613.81;5028743;28;20053;-66
2021/06/12 10:27:46;;;;;;;15.95;14.55;;;;;;;26.57;43.39;100625.00;5017193;28;20053;-66
2021/06/12 10:30:15;;;;;;;15.60;14.02;;;;;;;27.45;41.63;100615.13;5013811;28;20057;-66
2021/06/12 10:32:46;;;;;;;;;;;;;;;28.36;40.02;100602.00;5021477;28;20056;-66
2021/06/12 10:35:17;;;;;;;14.13;12.95;;;;;;;29.36;37.86;100610.88;5013388;28;19922;-66
2021/06/12 10:38:01;;;;;;;14.77;13.43;;;;;;;29.05;38.08;100613.91;5012675;28;20046;-66
2021/06/12 10:40:39;;;;;;;14.48;13.07;;;;;;;28.53;38.86;100615.25;5012717;28;20049;-66
2021/06/12 10:43:15;;;;;;;15.18;13.68;;;;;;;28.10;39.71;100612.25;5013073;28;20487;-66
2021/06/12 10:45:43;;;;;;;14.75;13.43;;;;;;;28.97;37.75;100603.81;5012924;28;20050;-66
2021/06/12 10:48:30;;;;;;;14.63;13.33;;;;;;;30.29;35.29;100605.97;5013006;28;20053;-66
2021/06/12 10:50:57;;;;;;;15.60;14.05;;;;;;;30.46;34.44;100603.13;5019047;28;20479;-66
2021/06/12 10:53:33;;;;;;;14.73;13.35;;;;;;;30.01;35.87;100610.34;5030465;28;20145;-66
2021/06/12 10:56:03;;;;;;;15.38;13.88;;;;;;;30.24;34.50;100597.06;5032258;28;20057;-67
2021/06/12 10:58:46;;;;;;;13.27;12.07;;;;;;;30.24;33.39;100605.66;5035654;28;20058;-67
2021/06/12 11:01:25;;;;;;;14.05;12.70;;;;;;;29.57;34.79;100598.16;5036120;28;20061;-67
2021/06/12 11:04:01;;;;;;;14.85;13.45;;;;;;;29.26;35.38;100595.50;5036703;28;20474;-67
2021/06/12 11:06:36;;;;;;;13.88;12.70;;;;;;;29.45;35.53;100598.81;5036947;28;20061;-67
2021/06/12 11:09:28;;;;;;;13.00;11.82;;;;;;;30.00;34.97;100593.53;5036318;28;20078;-67
2021/06/12 11:12:00;;;;;;;14.98;13.65;;;;;;;29.90;35.14;100592.50;5021420;28;20065;-67
2021/06/12 11:14:30;;;;;;;15.25;13.95;;;;;;;29.45;36.12;100596.75;5016624;28;20053;-67
2021/06/12 11:17:19;;;;;;;15.95;14.60;;;;;;;28.80;36.63;100584.91;5016732;28;20390;-67
2021/06/12 11:19:48;;;;;;;14.48;13.18;;;;;;;28.40;38.00;100591.28;5016543;28;20057;-67
2021/06/12 11:22:29;;;;;;;16.48;14.98;;;;;;;27.90;37.87;100594.94;5016722;28;20057;-67
2021/06/12 11:24:59;;;;;;;15.77;14.27;;;;;;;27.48;39.14;100595.03;5016676;28;20049;-67
2021/06/12 11:27:30;;;;;;;;;;;;;;;26.96;40.06;100602.97;5016654;28;20053;-66